createdAt,value
2023-01-18T00:01:32.512Z,-0.90
2023-01-18T00:04:00.896Z,-0.90
2023-01-18T00:06:29.059Z,-0.70
2023-01-18T00:08:57.330Z,-0.70
2023-01-18T00:11:25.514Z,-0.80
2023-01-18T00:13:55.027Z,-0.30
2023-01-18T00:16:23.723Z,-0.30
2023-01-18T00:18:53.156Z,-0.40
2023-01-18T00:21:21.884Z,-0.60
2023-01-18T00:23:50.146Z,-0.60
2023-01-18T00:26:18.516Z,-0.50
2023-01-18T00:28:46.873Z,-0.40
2023-01-18T00:31:19.101Z,-0.30
2023-01-18T00:33:49.248Z,-0.30
2023-01-18T00:36:18.200Z,-0.40
2023-01-18T00:38:51.501Z,0.00
2023-01-18T00:41:19.621Z,-0.10
2023-01-18T00:43:46.908Z,-0.20
2023-01-18T00:46:20.987Z,-0.30
2023-01-18T00:48:49.342Z,-0.20
2023-01-18T00:51:21.849Z,-0.30
2023-01-18T00:53:52.252Z,-0.60
2023-01-18T00:56:22.567Z,-0.60
2023-01-18T00:58:50.858Z,-0.60
2023-01-18T01:01:20.420Z,-0.30
2023-01-18T01:04:05.892Z,-0.40
2023-01-18T01:06:47.615Z,-0.50
2023-01-18T01:09:18.906Z,-0.60
2023-01-18T01:12:01.607Z,-0.60
2023-01-18T01:14:47.266Z,-0.60
2023-01-18T01:17:34.382Z,-0.60
2023-01-18T01:20:20.100Z,-0.60
2023-01-18T01:23:05.687Z,-0.70
2023-01-18T01:25:51.452Z,-0.90
2023-01-18T01:28:19.645Z,-0.90
2023-01-18T01:30:48.012Z,-0.90
2023-01-18T01:33:18.296Z,-0.80
2023-01-18T01:35:49.933Z,-0.80
2023-01-18T01:38:18.021Z,-0.90
2023-01-18T01:40:46.185Z,-0.90
2023-01-18T01:43:14.755Z,-0.90
2023-01-18T01:45:43.070Z,-0.70
2023-01-18T01:48:11.950Z,-0.50
2023-01-18T01:50:42.746Z,-0.40
2023-01-18T01:53:12.499Z,-0.40
2023-01-18T01:55:43.125Z,-0.20
2023-01-18T01:58:15.486Z,-0.10
2023-01-18T02:00:44.738Z,-0.30
2023-01-18T02:03:15.859Z,-0.50
2023-01-18T02:05:48.213Z,-0.60
2023-01-18T02:08:22.086Z,-0.50
2023-01-18T02:10:51.067Z,-0.30
2023-01-18T02:13:20.471Z,-0.40
2023-01-18T02:15:58.916Z,-0.50
2023-01-18T02:18:31.629Z,-0.50
2023-01-18T02:21:16.016Z,-0.60
2023-01-18T02:24:20.112Z,-0.80
2023-01-18T02:27:01.083Z,-0.90
2023-01-18T02:29:44.550Z,-1.00
2023-01-18T02:32:24.924Z,-1.00
2023-01-18T02:34:59.168Z,-1.00
2023-01-18T02:37:37.982Z,-0.80
2023-01-18T02:40:16.969Z,-0.60
2023-01-18T02:43:03.459Z,-0.70
2023-01-18T02:45:54.355Z,-0.80
2023-01-18T02:48:25.241Z,-0.60
2023-01-18T02:50:54.106Z,-0.40
2023-01-18T02:53:22.183Z,-0.30
2023-01-18T02:55:54.913Z,-0.40
2023-01-18T02:58:26.440Z,-0.30
2023-01-18T03:01:02.642Z,-0.30
2023-01-18T03:03:30.910Z,-0.30
2023-01-18T03:06:01.810Z,-0.20
2023-01-18T03:08:37.310Z,-0.10
2023-01-18T03:11:10.505Z,0.10
2023-01-18T03:13:58.568Z,0.20
2023-01-18T03:16:39.537Z,0.20
2023-01-18T03:19:32.267Z,0.10
2023-01-18T03:22:02.138Z,0.20
2023-01-18T03:24:30.457Z,0.30
2023-01-18T03:27:17.757Z,0.30
2023-01-18T03:30:05.061Z,0.40
2023-01-18T03:32:53.695Z,0.40
2023-01-18T03:35:26.783Z,0.30
2023-01-18T03:37:57.415Z,0.30
2023-01-18T03:40:29.050Z,0.40
2023-01-18T03:43:06.743Z,0.50
2023-01-18T03:45:37.608Z,0.50
2023-01-18T03:48:10.249Z,0.50
2023-01-18T03:50:47.066Z,0.40
2023-01-18T03:53:18.467Z,0.20
2023-01-18T03:55:54.077Z,0.10
2023-01-18T03:58:27.738Z,0.30
2023-01-18T04:00:56.027Z,0.30
2023-01-18T04:03:25.658Z,0.30
2023-01-18T04:05:53.751Z,0.20
2023-01-18T04:08:22.166Z,0.30
2023-01-18T04:10:50.235Z,0.40
2023-01-18T04:13:18.370Z,0.50
2023-01-18T04:15:46.585Z,0.40
2023-01-18T04:18:17.241Z,0.50
2023-01-18T04:20:46.847Z,0.60
2023-01-18T04:23:15.095Z,0.50
2023-01-18T04:25:49.908Z,0.40
2023-01-18T04:28:25.451Z,0.40
2023-01-18T04:30:54.419Z,0.30
2023-01-18T04:33:24.097Z,0.20
2023-01-18T04:35:54.870Z,0.10
2023-01-18T04:38:23.525Z,0.20
2023-01-18T04:40:51.663Z,0.20
2023-01-18T04:43:20.762Z,0.40
2023-01-18T04:45:55.450Z,0.50
2023-01-18T04:48:24.891Z,0.50
2023-01-18T04:50:54.744Z,0.60
2023-01-18T04:53:23.518Z,0.60
2023-01-18T04:55:54.177Z,0.60
2023-01-18T04:58:22.336Z,0.70
2023-01-18T05:00:53.110Z,0.90
2023-01-18T05:03:21.737Z,0.80
2023-01-18T05:05:49.817Z,0.90
2023-01-18T05:08:19.433Z,0.90
2023-01-18T05:10:47.589Z,1.00
2023-01-18T05:13:15.741Z,1.10
2023-01-18T05:15:43.747Z,1.00
2023-01-18T05:18:11.817Z,1.10
2023-01-18T05:20:39.907Z,1.10
2023-01-18T05:23:10.979Z,1.00
2023-01-18T05:25:41.368Z,1.00
2023-01-18T05:28:10.430Z,1.00
2023-01-18T05:30:40.946Z,1.00
2023-01-18T05:33:10.072Z,1.00
2023-01-18T05:35:38.133Z,1.00
2023-01-18T05:38:08.668Z,1.10
2023-01-18T05:40:36.720Z,1.20
2023-01-18T05:43:06.244Z,1.20
2023-01-18T05:45:34.397Z,1.20
2023-01-18T05:48:03.879Z,1.10
2023-01-18T05:50:32.129Z,1.20
2023-01-18T05:53:14.876Z,1.20
2023-01-18T05:55:43.198Z,1.20
2023-01-18T05:58:12.763Z,1.20
2023-01-18T06:00:40.822Z,1.20
2023-01-18T06:03:10.763Z,1.20
2023-01-18T06:05:39.092Z,1.10
2023-01-18T06:08:07.371Z,1.10
2023-01-18T06:10:35.837Z,1.10
2023-01-18T06:13:03.987Z,1.20
2023-01-18T06:15:33.660Z,1.00
2023-01-18T06:18:01.755Z,1.00
2023-01-18T06:20:30.645Z,1.00
2023-01-18T06:22:59.645Z,1.00
2023-01-18T06:25:28.044Z,1.00
2023-01-18T06:27:56.553Z,1.00
2023-01-18T06:30:25.395Z,1.00
2023-01-18T06:32:54.893Z,1.00
2023-01-18T06:35:23.203Z,1.00
2023-01-18T06:37:52.422Z,1.00
2023-01-18T06:40:20.694Z,0.90
2023-01-18T06:42:49.747Z,0.90
2023-01-18T06:45:21.908Z,0.90
2023-01-18T06:47:53.944Z,0.90
2023-01-18T06:50:22.688Z,0.90
2023-01-18T06:52:51.437Z,0.90
2023-01-18T06:55:20.328Z,0.80
2023-01-18T06:57:48.825Z,0.80
2023-01-18T07:00:18.293Z,0.80
2023-01-18T07:02:46.366Z,0.90
2023-01-18T07:05:16.285Z,0.90
2023-01-18T07:07:45.696Z,0.90
2023-01-18T07:10:16.348Z,0.80
2023-01-18T07:12:48.548Z,0.90
2023-01-18T07:15:21.905Z,0.80
2023-01-18T07:17:51.222Z,0.90
2023-01-18T07:20:20.762Z,0.80
2023-01-18T07:22:52.540Z,0.90
2023-01-18T07:25:20.982Z,0.90
2023-01-18T07:27:49.913Z,0.90
2023-01-18T07:30:18.944Z,0.80
2023-01-18T07:32:49.907Z,0.80
2023-01-18T07:35:21.909Z,0.80
2023-01-18T07:37:52.996Z,0.80
2023-01-18T07:40:21.946Z,0.80
2023-01-18T07:42:50.569Z,0.80
2023-01-18T07:45:18.894Z,0.80
2023-01-18T07:47:47.128Z,0.90
2023-01-18T07:50:15.965Z,0.80
2023-01-18T07:52:44.193Z,0.90
2023-01-18T07:55:13.731Z,1.00
2023-01-18T07:57:42.021Z,1.00
2023-01-18T08:00:12.148Z,1.00
2023-01-18T08:02:43.331Z,1.00
2023-01-18T08:05:11.597Z,1.10
2023-01-18T08:07:39.926Z,1.20
2023-01-18T08:10:08.404Z,1.10
2023-01-18T08:12:40.173Z,1.10
2023-01-18T08:15:09.586Z,1.10
2023-01-18T08:17:37.848Z,1.20
2023-01-18T08:20:09.375Z,1.30
2023-01-18T08:22:37.804Z,1.40
2023-01-18T08:25:07.059Z,1.30
2023-01-18T08:27:35.176Z,1.40
2023-01-18T08:30:04.860Z,1.50
2023-01-18T08:32:33.056Z,1.50
2023-01-18T08:35:01.448Z,1.50
2023-01-18T08:37:30.228Z,1.60
2023-01-18T08:39:58.455Z,1.60
2023-01-18T08:42:29.525Z,1.60
2023-01-18T08:44:58.150Z,1.70
2023-01-18T08:47:30.679Z,1.70
2023-01-18T08:50:03.287Z,1.70
2023-01-18T08:52:31.495Z,1.80
2023-01-18T08:55:00.186Z,1.80
2023-01-18T08:57:31.100Z,1.90
2023-01-18T08:59:59.327Z,1.90
2023-01-18T09:02:28.852Z,2.00
2023-01-18T09:04:58.167Z,2.00
2023-01-18T09:07:29.493Z,2.00
2023-01-18T09:09:57.610Z,2.00
2023-01-18T09:12:26.446Z,2.00
2023-01-18T09:14:54.573Z,1.90
2023-01-18T09:17:22.736Z,2.00
2023-01-18T09:19:52.661Z,2.10
2023-01-18T09:22:20.857Z,2.20
2023-01-18T09:24:48.992Z,2.30
2023-01-18T09:27:17.396Z,2.20
2023-01-18T09:29:47.016Z,2.20
2023-01-18T09:32:15.621Z,2.30
2023-01-18T09:34:49.191Z,2.30
2023-01-18T09:37:19.236Z,2.30
2023-01-18T09:39:52.189Z,2.30
2023-01-18T09:42:23.541Z,2.40
2023-01-18T09:44:54.050Z,2.50
2023-01-18T09:47:26.369Z,2.70
2023-01-18T09:49:57.367Z,2.70
2023-01-18T09:52:38.456Z,2.70
2023-01-18T09:55:20.944Z,2.80
2023-01-18T09:58:05.153Z,2.80
2023-01-18T10:00:36.243Z,3.00
2023-01-18T10:03:13.300Z,3.00
2023-01-18T10:05:48.414Z,2.90
2023-01-18T10:08:24.426Z,2.80
2023-01-18T10:11:04.316Z,2.90
2023-01-18T10:13:48.834Z,2.90
2023-01-18T10:16:17.027Z,3.10
2023-01-18T10:18:48.323Z,3.00
2023-01-18T10:21:26.419Z,3.00
2023-01-18T10:24:12.192Z,2.90
2023-01-18T10:26:40.670Z,2.80
2023-01-18T10:29:17.944Z,2.80
2023-01-18T10:31:56.167Z,2.90
2023-01-18T10:34:31.895Z,3.00
2023-01-18T10:37:12.554Z,3.10
2023-01-18T10:39:48.627Z,2.70
2023-01-18T10:42:22.848Z,2.90
2023-01-18T10:44:56.343Z,3.10
2023-01-18T10:47:25.367Z,3.20
2023-01-18T10:49:59.472Z,3.10
2023-01-18T10:52:29.372Z,3.10
2023-01-18T10:55:01.534Z,3.00
2023-01-18T10:57:33.193Z,3.00
2023-01-18T11:00:01.869Z,2.90
2023-01-18T11:02:32.320Z,3.00
2023-01-18T11:05:06.305Z,3.10
2023-01-18T11:07:35.672Z,3.10
2023-01-18T11:10:09.607Z,3.00
2023-01-18T11:12:45.529Z,2.80
2023-01-18T11:15:30.539Z,2.70
2023-01-18T11:18:11.933Z,2.60
2023-01-18T11:20:50.715Z,2.60
2023-01-18T11:23:22.651Z,2.60
2023-01-18T11:25:57.491Z,2.70
2023-01-18T11:28:30.351Z,2.70
2023-01-18T11:31:06.445Z,2.80
2023-01-18T11:33:34.977Z,2.70
2023-01-18T11:36:05.665Z,2.70
2023-01-18T11:38:36.300Z,2.80
2023-01-18T11:41:13.480Z,2.80
2023-01-18T11:43:46.825Z,2.70
2023-01-18T11:46:31.973Z,2.70
2023-01-18T11:49:07.893Z,2.60
2023-01-18T11:51:43.651Z,2.60
2023-01-18T11:54:26.459Z,2.70
2023-01-18T11:56:59.647Z,2.80
2023-01-18T11:59:34.019Z,2.80
2023-01-18T12:02:45.477Z,2.70
2023-01-18T12:05:33.010Z,2.60
2023-01-18T12:08:15.486Z,2.70
2023-01-18T12:10:54.356Z,2.70
2023-01-18T12:13:35.852Z,2.60
2023-01-18T12:16:12.818Z,2.60
2023-01-18T12:19:07.216Z,2.60
2023-01-18T12:21:48.825Z,2.50
2023-01-18T12:24:31.336Z,2.50
2023-01-18T12:27:04.831Z,2.60
2023-01-18T12:30:09.255Z,2.60
2023-01-18T12:33:16.121Z,2.60
2023-01-18T12:36:10.699Z,2.60
2023-01-18T12:38:45.340Z,2.60
2023-01-18T12:41:32.635Z,2.60
2023-01-18T12:44:23.165Z,2.60
2023-01-18T12:47:04.355Z,2.70
2023-01-18T12:49:39.376Z,2.60
2023-01-18T12:52:18.512Z,2.60
2023-01-18T12:54:50.340Z,2.70
2023-01-18T12:57:20.169Z,2.70
2023-01-18T12:59:55.087Z,2.70
2023-01-18T13:02:33.171Z,2.70
2023-01-18T13:05:05.373Z,2.60
2023-01-18T13:07:38.821Z,2.70
2023-01-18T13:10:18.052Z,2.70
2023-01-18T13:12:46.748Z,2.80
2023-01-18T13:15:27.402Z,2.90
2023-01-18T13:18:05.714Z,2.90
2023-01-18T13:24:34.110Z,2.80
2023-01-18T13:27:10.556Z,2.80
2023-01-18T13:29:39.121Z,2.80
2023-01-18T13:32:28.588Z,2.80
2023-01-18T13:35:19.529Z,2.70
2023-01-18T13:37:51.203Z,2.80
2023-01-18T13:40:42.271Z,2.70
2023-01-18T13:43:32.343Z,2.70
2023-01-18T13:46:02.915Z,2.70
2023-01-18T13:48:46.343Z,2.70
2023-01-18T13:51:53.398Z,2.60
2023-01-18T13:54:57.183Z,2.60
2023-01-18T13:57:27.024Z,2.60
2023-01-18T13:59:55.297Z,2.50
2023-01-18T14:02:28.488Z,2.50
2023-01-18T14:05:03.553Z,2.40
2023-01-18T14:07:41.837Z,2.30
2023-01-18T14:10:30.442Z,2.30
2023-01-18T14:13:02.441Z,2.20
2023-01-18T14:15:46.618Z,2.10
2023-01-18T14:18:26.731Z,2.10
2023-01-18T14:21:06.288Z,1.90
2023-01-18T14:23:56.647Z,1.90
2023-01-18T14:26:30.122Z,1.90
2023-01-18T14:29:01.854Z,1.80
2023-01-18T14:31:34.130Z,1.80
2023-01-18T14:34:35.293Z,1.80
2023-01-18T14:37:03.748Z,1.90
2023-01-18T14:39:33.194Z,2.00
2023-01-18T14:42:04.426Z,2.00
2023-01-18T14:44:56.952Z,1.90
2023-01-18T14:47:28.934Z,1.90
2023-01-18T14:50:00.179Z,1.90
2023-01-18T14:52:31.874Z,1.90
2023-01-18T14:55:00.134Z,1.90
2023-01-18T14:57:28.404Z,1.90
2023-01-18T15:00:09.867Z,1.90
2023-01-18T15:02:39.834Z,1.80
2023-01-18T15:05:12.207Z,1.90
2023-01-18T15:07:41.911Z,1.90
2023-01-18T15:10:11.361Z,1.90
2023-01-18T15:12:40.962Z,1.90
2023-01-18T15:15:21.206Z,1.90
2023-01-18T15:17:51.208Z,1.80
2023-01-18T15:20:19.824Z,1.90
2023-01-18T15:22:50.542Z,1.90
2023-01-18T15:25:27.219Z,1.90
2023-01-18T15:27:58.930Z,1.90
2023-01-18T15:30:28.604Z,1.90
2023-01-18T15:33:01.992Z,1.90
2023-01-18T15:35:31.701Z,1.80
2023-01-18T15:38:00.207Z,1.90
2023-01-18T15:40:31.554Z,1.90
2023-01-18T15:43:05.750Z,2.00
2023-01-18T15:45:38.564Z,2.00
2023-01-18T15:48:14.252Z,2.00
2023-01-18T15:50:46.631Z,2.00
2023-01-18T15:53:19.932Z,2.00
2023-01-18T15:55:51.632Z,2.00
2023-01-18T15:58:27.661Z,1.90
2023-01-18T16:00:59.489Z,2.00
2023-01-18T16:03:30.618Z,2.10
2023-01-18T16:06:05.520Z,2.10
2023-01-18T16:08:33.883Z,2.20
2023-01-18T16:11:02.724Z,2.10
2023-01-18T16:13:36.580Z,2.10
2023-01-18T16:16:14.359Z,2.10
2023-01-18T16:18:45.140Z,2.00
2023-01-18T16:21:19.130Z,2.00
2023-01-18T16:23:50.072Z,1.90
2023-01-18T16:26:23.177Z,2.00
2023-01-18T16:28:52.812Z,1.90
2023-01-18T16:31:24.603Z,1.90
2023-01-18T16:33:52.696Z,1.80
2023-01-18T16:36:22.205Z,1.80
2023-01-18T16:38:50.490Z,1.80
2023-01-18T16:41:18.794Z,1.80
2023-01-18T16:43:48.202Z,1.90
2023-01-18T16:46:16.862Z,2.10
2023-01-18T16:48:46.423Z,2.00
2023-01-18T16:51:18.460Z,2.00
2023-01-18T16:53:48.126Z,2.00
2023-01-18T16:56:16.693Z,2.00
2023-01-18T16:58:44.848Z,2.00
2023-01-18T17:01:15.768Z,2.00
2023-01-18T17:03:44.859Z,2.00
2023-01-18T17:06:18.975Z,2.00
2023-01-18T17:08:47.632Z,2.00
2023-01-18T17:11:17.462Z,1.90
2023-01-18T17:13:47.617Z,1.90
2023-01-18T17:16:18.537Z,1.80
2023-01-18T17:18:47.994Z,1.90
2023-01-18T17:21:17.508Z,1.80
2023-01-18T17:23:45.658Z,1.90
2023-01-18T17:26:15.723Z,1.80
2023-01-18T17:28:44.705Z,1.80
2023-01-18T17:31:13.486Z,1.80
2023-01-18T17:33:42.965Z,1.80
2023-01-18T17:36:11.372Z,1.70
2023-01-18T17:38:41.063Z,1.70
2023-01-18T17:41:27.039Z,1.70
2023-01-18T17:43:56.035Z,1.70
2023-01-18T17:46:24.401Z,1.70
2023-01-18T17:48:55.057Z,1.70
2023-01-18T17:51:23.181Z,1.70
2023-01-18T17:53:52.684Z,1.60
2023-01-18T17:56:21.523Z,1.60
2023-01-18T17:58:50.690Z,1.60
2023-01-18T18:01:19.564Z,1.60
2023-01-18T18:03:49.733Z,1.60
2023-01-18T18:06:30.211Z,1.60
2023-01-18T18:11:57.950Z,1.50
2023-01-18T18:14:26.140Z,1.40
2023-01-18T18:16:54.492Z,1.40
2023-01-18T18:19:22.809Z,1.30
2023-01-18T18:21:50.928Z,1.30
2023-01-18T18:24:19.285Z,1.20
2023-01-18T18:26:47.859Z,1.10
2023-01-18T18:29:17.538Z,1.10
2023-01-18T18:31:47.965Z,1.00
2023-01-18T18:34:16.143Z,1.00
2023-01-18T18:36:44.409Z,0.90
2023-01-18T18:39:12.548Z,0.90
2023-01-18T18:41:42.198Z,0.90
2023-01-18T18:50:03.545Z,0.80
2023-01-18T18:52:31.758Z,0.70
2023-01-18T18:54:59.934Z,0.70
2023-01-18T18:57:29.302Z,0.60
2023-01-18T18:59:58.458Z,0.60
2023-01-18T19:02:27.127Z,0.60
2023-01-18T19:04:55.282Z,0.50
2023-01-18T19:07:24.912Z,0.50
2023-01-18T19:09:53.296Z,0.60
2023-01-18T19:12:21.512Z,0.50
2023-01-18T19:14:50.007Z,0.50
2023-01-18T19:17:28.883Z,0.40
2023-01-18T19:19:57.967Z,0.40
2023-01-18T19:22:28.273Z,0.30
2023-01-18T19:24:56.472Z,0.30
2023-01-18T19:27:25.055Z,0.30
2023-01-18T19:29:55.479Z,0.40
2023-01-18T19:32:23.789Z,0.40
2023-01-18T19:34:52.020Z,0.40
2023-01-18T19:37:20.160Z,0.40
2023-01-18T19:39:50.227Z,0.30
2023-01-18T19:42:18.504Z,0.40
2023-01-18T19:44:46.608Z,0.40
2023-01-18T19:47:14.888Z,0.40
2023-01-18T19:49:44.679Z,0.40
2023-01-18T19:52:12.915Z,0.40
2023-01-18T19:54:41.068Z,0.30
2023-01-18T19:57:12.944Z,0.20
2023-01-18T19:59:41.115Z,0.10
2023-01-18T20:02:12.211Z,0.10
2023-01-18T20:04:40.384Z,0.00
2023-01-18T20:07:08.701Z,0.00
2023-01-18T20:09:43.059Z,0.00
2023-01-18T20:12:13.852Z,0.00
2023-01-18T20:14:42.558Z,0.40
2023-01-18T20:17:11.464Z,0.30
2023-01-18T20:19:39.603Z,0.20
2023-01-18T20:22:07.891Z,0.10
2023-01-18T20:24:36.043Z,0.10
2023-01-18T20:27:15.358Z,-0.10
2023-01-18T20:29:45.969Z,-0.30
2023-01-18T20:32:18.192Z,-0.20
2023-01-18T20:34:47.560Z,-0.20
2023-01-18T20:37:16.851Z,-0.30
2023-01-18T20:39:44.958Z,-0.30
2023-01-18T20:42:13.184Z,0.10
2023-01-18T20:44:41.441Z,0.30
2023-01-18T20:47:11.358Z,0.10
2023-01-18T20:49:41.250Z,-0.20
2023-01-18T20:52:09.834Z,-0.30
2023-01-18T20:54:38.093Z,-0.50
2023-01-18T20:57:07.144Z,-0.50
2023-01-18T20:59:35.278Z,-0.50
2023-01-18T21:02:04.031Z,-0.50
2023-01-18T21:04:34.260Z,-0.40
2023-01-18T21:07:02.404Z,-0.40
2023-01-18T21:09:30.520Z,-0.30
2023-01-18T21:11:58.590Z,-0.40
2023-01-18T21:14:26.775Z,-0.40
2023-01-18T21:16:55.036Z,-0.30
2023-01-18T21:19:23.409Z,-0.20
2023-01-18T21:21:52.842Z,-0.30
2023-01-18T21:24:21.142Z,-0.30
2023-01-18T21:26:49.200Z,-0.40
2023-01-18T21:29:17.561Z,-0.40
2023-01-18T21:31:45.913Z,-0.40
2023-01-18T21:34:14.323Z,-0.60
2023-01-18T21:36:42.409Z,-0.70
2023-01-18T21:39:25.024Z,-0.70
2023-01-18T21:42:15.693Z,-0.60
2023-01-18T21:45:01.114Z,-0.60
2023-01-18T21:47:29.148Z,-0.50
2023-01-18T21:50:18.624Z,-0.50
2023-01-18T21:53:04.316Z,-0.50
2023-01-18T21:55:38.011Z,-0.50
2023-01-18T21:58:23.430Z,-0.60
2023-01-18T22:00:51.640Z,-0.70
2023-01-18T22:03:20.663Z,-0.60
2023-01-18T22:05:47.814Z,-0.50
2023-01-18T22:08:15.883Z,-0.50
2023-01-18T22:10:50.021Z,-0.40
2023-01-18T22:13:20.857Z,-0.40
2023-01-18T22:15:49.352Z,-0.40
2023-01-18T22:18:17.447Z,-0.40
2023-01-18T22:20:45.546Z,-0.50
2023-01-18T22:23:14.720Z,-0.40
2023-01-18T22:25:42.778Z,-0.50
2023-01-18T22:28:16.247Z,-0.40
2023-01-18T22:30:44.521Z,-0.40
2023-01-18T22:33:12.581Z,-0.60
2023-01-18T22:35:40.918Z,-0.50
2023-01-18T22:38:12.330Z,-0.60
2023-01-18T22:40:41.699Z,-0.60
2023-01-18T22:43:09.795Z,-0.60
2023-01-18T22:45:39.823Z,-0.70
2023-01-18T22:48:08.290Z,-0.70
2023-01-18T22:50:36.389Z,-0.70
2023-01-18T22:53:05.728Z,-0.80
2023-01-18T22:55:34.389Z,-0.80
2023-01-18T22:58:02.882Z,-0.90
2023-01-18T23:00:31.944Z,-0.80
2023-01-18T23:03:01.448Z,-0.90
2023-01-18T23:05:29.524Z,-0.90
2023-01-18T23:07:58.087Z,-0.90
2023-01-18T23:10:26.535Z,-1.00
2023-01-18T23:12:54.979Z,-0.90
2023-01-18T23:15:40.311Z,-0.90
2023-01-18T23:18:10.041Z,-0.80
2023-01-18T23:20:38.555Z,-0.90
2023-01-18T23:23:06.611Z,-1.00
2023-01-18T23:25:34.711Z,-1.20
2023-01-18T23:28:03.288Z,-1.10
2023-01-18T23:30:32.633Z,-1.10
2023-01-18T23:33:00.797Z,-1.20
2023-01-18T23:35:30.334Z,-1.20
2023-01-18T23:38:00.854Z,-1.20
2023-01-18T23:40:50.414Z,-1.20
2023-01-18T23:43:36.058Z,-1.30
2023-01-18T23:46:21.433Z,-1.30
2023-01-18T23:49:06.926Z,-1.30
2023-01-18T23:51:53.967Z,-1.10
2023-01-18T23:54:22.392Z,-1.20
2023-01-18T23:56:50.789Z,-1.20
2023-01-18T23:59:19.993Z,-1.20
